sensor_id;sensor_type;location;lat;lon;timestamp;P1;durP1;ratioP1;P2;durP2;ratioP2
39888;SDS011;25563;50.844;4.308;2022-11-20T00:01:15;81.75;;;40.50;;
39888;SDS011;25563;50.844;4.308;2022-11-20T00:03:43;75.10;;;39.60;;
39888;SDS011;25563;50.844;4.308;2022-11-20T00:06:10;80.97;;;40.90;;
39888;SDS011;25563;50.844;4.308;2022-11-20T00:08:37;85.25;;;41.25;;
39888;SDS011;25563;50.844;4.308;2022-11-20T00:11:06;79.45;;;38.75;;
39888;SDS011;25563;50.844;4.308;2022-11-20T00:13:34;83.07;;;41.20;;
39888;SDS011;25563;50.844;4.308;2022-11-20T00:16:01;87.70;;;40.08;;
39888;SDS011;25563;50.844;4.308;2022-11-20T00:18:29;83.65;;;41.58;;
39888;SDS011;25563;50.844;4.308;2022-11-20T00:21:00;76.35;;;38.85;;
39888;SDS011;25563;50.844;4.308;2022-11-20T00:23:30;80.05;;;40.30;;
39888;SDS011;25563;50.844;4.308;2022-11-20T00:26:00;89.13;;;41.65;;
39888;SDS011;25563;50.844;4.308;2022-11-20T00:28:28;83.50;;;40.28;;
39888;SDS011;25563;50.844;4.308;2022-11-20T00:30:59;85.00;;;41.45;;
39888;SDS011;25563;50.844;4.308;2022-11-20T00:33:29;84.20;;;41.90;;
39888;SDS011;25563;50.844;4.308;2022-11-20T00:35:59;86.97;;;41.35;;
39888;SDS011;25563;50.844;4.308;2022-11-20T00:38:26;84.60;;;41.22;;
39888;SDS011;25563;50.844;4.308;2022-11-20T00:40:56;80.13;;;40.33;;
39888;SDS011;25563;50.844;4.308;2022-11-20T00:43:25;82.03;;;41.25;;
39888;SDS011;25563;50.844;4.308;2022-11-20T00:45:56;86.30;;;42.83;;
39888;SDS011;25563;50.844;4.308;2022-11-20T00:48:26;86.90;;;40.95;;
39888;SDS011;25563;50.844;4.308;2022-11-20T00:50:52;85.35;;;39.95;;
39888;SDS011;25563;50.844;4.308;2022-11-20T00:53:18;88.90;;;41.55;;
39888;SDS011;25563;50.844;4.308;2022-11-20T00:55:54;85.13;;;41.42;;
39888;SDS011;25563;50.844;4.308;2022-11-20T00:58:34;94.68;;;41.50;;
39888;SDS011;25563;50.844;4.308;2022-11-20T01:01:02;90.60;;;41.42;;
39888;SDS011;25563;50.844;4.308;2022-11-20T01:03:33;95.35;;;43.67;;
39888;SDS011;25563;50.844;4.308;2022-11-20T01:06:02;92.22;;;43.17;;
39888;SDS011;25563;50.844;4.308;2022-11-20T01:08:30;95.38;;;42.28;;
39888;SDS011;25563;50.844;4.308;2022-11-20T01:11:01;92.63;;;43.10;;
39888;SDS011;25563;50.844;4.308;2022-11-20T01:13:29;96.82;;;44.80;;
39888;SDS011;25563;50.844;4.308;2022-11-20T01:18:31;100.10;;;44.28;;
39888;SDS011;25563;50.844;4.308;2022-11-20T01:21:04;84.07;;;42.47;;
39888;SDS011;25563;50.844;4.308;2022-11-20T01:23:35;83.78;;;41.85;;
39888;SDS011;25563;50.844;4.308;2022-11-20T01:26:03;91.85;;;42.75;;
39888;SDS011;25563;50.844;4.308;2022-11-20T01:28:30;89.00;;;42.47;;
39888;SDS011;25563;50.844;4.308;2022-11-20T01:30:57;92.30;;;43.45;;
39888;SDS011;25563;50.844;4.308;2022-11-20T01:33:23;86.93;;;42.58;;
39888;SDS011;25563;50.844;4.308;2022-11-20T01:35:49;95.53;;;43.50;;
39888;SDS011;25563;50.844;4.308;2022-11-20T01:38:16;85.47;;;41.63;;
39888;SDS011;25563;50.844;4.308;2022-11-20T01:40:42;92.97;;;41.95;;
39888;SDS011;25563;50.844;4.308;2022-11-20T01:43:16;87.60;;;42.22;;
39888;SDS011;25563;50.844;4.308;2022-11-20T01:48:22;88.43;;;41.78;;
39888;SDS011;25563;50.844;4.308;2022-11-20T01:50:51;83.50;;;41.13;;
39888;SDS011;25563;50.844;4.308;2022-11-20T01:53:18;86.55;;;41.03;;
39888;SDS011;25563;50.844;4.308;2022-11-20T01:55:49;85.47;;;40.58;;
39888;SDS011;25563;50.844;4.308;2022-11-20T01:58:18;88.47;;;42.05;;
39888;SDS011;25563;50.844;4.308;2022-11-20T02:00:47;80.78;;;40.80;;
39888;SDS011;25563;50.844;4.308;2022-11-20T02:03:13;83.65;;;41.33;;
39888;SDS011;25563;50.844;4.308;2022-11-20T02:05:43;80.65;;;40.50;;
39888;SDS011;25563;50.844;4.308;2022-11-20T02:08:28;80.50;;;39.00;;
39888;SDS011;25563;50.844;4.308;2022-11-20T02:10:55;80.30;;;38.78;;
39888;SDS011;25563;50.844;4.308;2022-11-20T02:13:21;76.68;;;38.25;;
39888;SDS011;25563;50.844;4.308;2022-11-20T02:16:08;84.30;;;38.75;;
39888;SDS011;25563;50.844;4.308;2022-11-20T02:18:35;82.80;;;39.25;;
39888;SDS011;25563;50.844;4.308;2022-11-20T02:26:38;79.55;;;36.55;;
39888;SDS011;25563;50.844;4.308;2022-11-20T02:29:22;68.97;;;36.30;;
39888;SDS011;25563;50.844;4.308;2022-11-20T02:31:52;74.55;;;37.50;;
39888;SDS011;25563;50.844;4.308;2022-11-20T02:34:20;83.47;;;39.72;;
39888;SDS011;25563;50.844;4.308;2022-11-20T02:36:45;82.00;;;39.35;;
39888;SDS011;25563;50.844;4.308;2022-11-20T02:39:13;88.68;;;39.75;;
39888;SDS011;25563;50.844;4.308;2022-11-20T02:41:41;94.22;;;40.38;;
39888;SDS011;25563;50.844;4.308;2022-11-20T02:44:07;85.00;;;39.63;;
39888;SDS011;25563;50.844;4.308;2022-11-20T02:46:33;88.70;;;38.85;;
39888;SDS011;25563;50.844;4.308;2022-11-20T02:49:00;92.07;;;40.15;;
39888;SDS011;25563;50.844;4.308;2022-11-20T02:51:26;97.45;;;41.95;;
39888;SDS011;25563;50.844;4.308;2022-11-20T02:53:52;92.93;;;40.25;;
39888;SDS011;25563;50.844;4.308;2022-11-20T02:56:18;85.28;;;37.53;;
39888;SDS011;25563;50.844;4.308;2022-11-20T02:58:44;87.72;;;38.60;;
39888;SDS011;25563;50.844;4.308;2022-11-20T03:01:09;82.07;;;36.75;;
39888;SDS011;25563;50.844;4.308;2022-11-20T03:03:35;89.55;;;38.13;;
39888;SDS011;25563;50.844;4.308;2022-11-20T03:06:01;86.97;;;38.45;;
39888;SDS011;25563;50.844;4.308;2022-11-20T03:08:27;76.20;;;35.10;;
39888;SDS011;25563;50.844;4.308;2022-11-20T03:10:53;74.15;;;33.20;;
39888;SDS011;25563;50.844;4.308;2022-11-20T03:13:19;76.82;;;35.40;;
39888;SDS011;25563;50.844;4.308;2022-11-20T03:15:44;88.70;;;38.38;;
39888;SDS011;25563;50.844;4.308;2022-11-20T03:18:10;75.15;;;33.97;;
39888;SDS011;25563;50.844;4.308;2022-11-20T03:20:36;79.18;;;34.70;;
39888;SDS011;25563;50.844;4.308;2022-11-20T03:23:01;75.93;;;35.67;;
39888;SDS011;25563;50.844;4.308;2022-11-20T03:25:27;77.80;;;35.67;;
39888;SDS011;25563;50.844;4.308;2022-11-20T03:27:53;77.50;;;35.03;;
39888;SDS011;25563;50.844;4.308;2022-11-20T03:30:19;83.25;;;36.97;;
39888;SDS011;25563;50.844;4.308;2022-11-20T03:32:45;78.20;;;34.13;;
39888;SDS011;25563;50.844;4.308;2022-11-20T03:35:11;78.70;;;35.90;;
39888;SDS011;25563;50.844;4.308;2022-11-20T03:37:36;72.82;;;34.33;;
39888;SDS011;25563;50.844;4.308;2022-11-20T03:40:02;75.35;;;33.83;;
39888;SDS011;25563;50.844;4.308;2022-11-20T03:42:28;73.70;;;33.95;;
39888;SDS011;25563;50.844;4.308;2022-11-20T03:45:13;74.82;;;33.13;;
39888;SDS011;25563;50.844;4.308;2022-11-20T03:47:43;76.10;;;34.72;;
39888;SDS011;25563;50.844;4.308;2022-11-20T03:50:09;82.32;;;33.25;;
39888;SDS011;25563;50.844;4.308;2022-11-20T03:52:37;87.38;;;37.08;;
39888;SDS011;25563;50.844;4.308;2022-11-20T03:55:04;80.78;;;34.72;;
39888;SDS011;25563;50.844;4.308;2022-11-20T03:57:30;85.20;;;35.47;;
39888;SDS011;25563;50.844;4.308;2022-11-20T03:59:56;77.07;;;35.60;;
39888;SDS011;25563;50.844;4.308;2022-11-20T04:02:21;83.05;;;36.58;;
39888;SDS011;25563;50.844;4.308;2022-11-20T04:04:47;86.43;;;37.40;;
39888;SDS011;25563;50.844;4.308;2022-11-20T04:07:13;82.15;;;38.10;;
39888;SDS011;25563;50.844;4.308;2022-11-20T04:09:38;76.88;;;35.05;;
39888;SDS011;25563;50.844;4.308;2022-11-20T04:12:04;81.05;;;35.03;;
39888;SDS011;25563;50.844;4.308;2022-11-20T04:14:30;77.50;;;35.08;;
39888;SDS011;25563;50.844;4.308;2022-11-20T04:16:55;77.78;;;35.95;;
39888;SDS011;25563;50.844;4.308;2022-11-20T04:19:21;84.03;;;37.00;;
39888;SDS011;25563;50.844;4.308;2022-11-20T04:21:47;89.32;;;37.05;;
39888;SDS011;25563;50.844;4.308;2022-11-20T04:24:12;89.25;;;37.78;;
39888;SDS011;25563;50.844;4.308;2022-11-20T04:26:39;84.97;;;37.22;;
39888;SDS011;25563;50.844;4.308;2022-11-20T04:29:05;93.18;;;38.00;;
39888;SDS011;25563;50.844;4.308;2022-11-20T04:31:32;98.75;;;38.20;;
39888;SDS011;25563;50.844;4.308;2022-11-20T04:34:03;92.35;;;37.60;;
39888;SDS011;25563;50.844;4.308;2022-11-20T04:36:30;87.30;;;37.45;;
39888;SDS011;25563;50.844;4.308;2022-11-20T04:38:58;100.68;;;38.35;;
39888;SDS011;25563;50.844;4.308;2022-11-20T04:41:27;101.97;;;39.53;;
39888;SDS011;25563;50.844;4.308;2022-11-20T04:43:55;96.57;;;39.07;;
39888;SDS011;25563;50.844;4.308;2022-11-20T04:46:24;103.70;;;40.15;;
39888;SDS011;25563;50.844;4.308;2022-11-20T04:48:51;105.35;;;39.30;;
39888;SDS011;25563;50.844;4.308;2022-11-20T04:51:17;101.05;;;39.38;;
39888;SDS011;25563;50.844;4.308;2022-11-20T04:53:43;95.60;;;38.67;;
39888;SDS011;25563;50.844;4.308;2022-11-20T04:56:10;93.88;;;40.85;;
39888;SDS011;25563;50.844;4.308;2022-11-20T04:58:37;100.78;;;39.63;;
39888;SDS011;25563;50.844;4.308;2022-11-20T05:01:04;108.63;;;40.88;;
39888;SDS011;25563;50.844;4.308;2022-11-20T05:03:37;112.07;;;40.83;;
39888;SDS011;25563;50.844;4.308;2022-11-20T05:06:03;105.43;;;40.45;;
39888;SDS011;25563;50.844;4.308;2022-11-20T05:08:30;104.05;;;41.63;;
39888;SDS011;25563;50.844;4.308;2022-11-20T05:11:00;111.82;;;41.67;;
39888;SDS011;25563;50.844;4.308;2022-11-20T05:13:30;111.78;;;41.88;;
39888;SDS011;25563;50.844;4.308;2022-11-20T05:15:55;121.35;;;42.15;;
39888;SDS011;25563;50.844;4.308;2022-11-20T05:18:28;106.43;;;41.70;;
39888;SDS011;25563;50.844;4.308;2022-11-20T05:20:55;113.93;;;43.30;;
39888;SDS011;25563;50.844;4.308;2022-11-20T05:23:24;112.35;;;41.90;;
39888;SDS011;25563;50.844;4.308;2022-11-20T05:25:54;105.38;;;40.67;;
39888;SDS011;25563;50.844;4.308;2022-11-20T05:28:20;115.65;;;41.60;;
39888;SDS011;25563;50.844;4.308;2022-11-20T05:30:47;121.55;;;44.28;;
39888;SDS011;25563;50.844;4.308;2022-11-20T05:33:13;120.38;;;44.25;;
39888;SDS011;25563;50.844;4.308;2022-11-20T05:35:38;117.05;;;44.40;;
39888;SDS011;25563;50.844;4.308;2022-11-20T05:38:04;121.32;;;43.90;;
39888;SDS011;25563;50.844;4.308;2022-11-20T05:40:30;124.85;;;44.35;;
39888;SDS011;25563;50.844;4.308;2022-11-20T05:42:55;120.60;;;42.60;;
39888;SDS011;25563;50.844;4.308;2022-11-20T05:45:21;121.72;;;41.60;;
39888;SDS011;25563;50.844;4.308;2022-11-20T05:47:47;119.60;;;43.00;;
39888;SDS011;25563;50.844;4.308;2022-11-20T05:50:13;125.50;;;44.08;;
39888;SDS011;25563;50.844;4.308;2022-11-20T05:52:39;121.25;;;42.88;;
39888;SDS011;25563;50.844;4.308;2022-11-20T05:55:05;128.00;;;44.63;;
39888;SDS011;25563;50.844;4.308;2022-11-20T05:57:32;144.43;;;46.17;;
39888;SDS011;25563;50.844;4.308;2022-11-20T05:59:58;147.43;;;47.30;;
39888;SDS011;25563;50.844;4.308;2022-11-20T06:02:23;140.95;;;46.20;;
39888;SDS011;25563;50.844;4.308;2022-11-20T06:04:49;145.80;;;47.58;;
39888;SDS011;25563;50.844;4.308;2022-11-20T06:07:15;142.35;;;45.58;;
39888;SDS011;25563;50.844;4.308;2022-11-20T06:09:40;148.90;;;46.63;;
39888;SDS011;25563;50.844;4.308;2022-11-20T06:12:06;141.38;;;48.67;;
39888;SDS011;25563;50.844;4.308;2022-11-20T06:14:32;141.35;;;46.88;;
39888;SDS011;25563;50.844;4.308;2022-11-20T06:16:58;138.23;;;47.75;;
39888;SDS011;25563;50.844;4.308;2022-11-20T06:19:24;156.10;;;45.58;;
39888;SDS011;25563;50.844;4.308;2022-11-20T06:21:49;141.57;;;47.45;;
39888;SDS011;25563;50.844;4.308;2022-11-20T06:24:16;135.93;;;46.08;;
39888;SDS011;25563;50.844;4.308;2022-11-20T06:26:42;146.95;;;46.53;;
39888;SDS011;25563;50.844;4.308;2022-11-20T06:29:08;135.68;;;46.22;;
39888;SDS011;25563;50.844;4.308;2022-11-20T06:31:34;123.80;;;43.90;;
39888;SDS011;25563;50.844;4.308;2022-11-20T06:34:03;134.88;;;44.30;;
39888;SDS011;25563;50.844;4.308;2022-11-20T06:36:31;121.25;;;43.58;;
39888;SDS011;25563;50.844;4.308;2022-11-20T06:38:57;126.93;;;46.00;;
39888;SDS011;25563;50.844;4.308;2022-11-20T06:41:23;128.02;;;44.15;;
39888;SDS011;25563;50.844;4.308;2022-11-20T06:43:49;123.30;;;44.53;;
39888;SDS011;25563;50.844;4.308;2022-11-20T06:46:15;114.28;;;44.17;;
39888;SDS011;25563;50.844;4.308;2022-11-20T06:48:45;128.85;;;44.50;;
39888;SDS011;25563;50.844;4.308;2022-11-20T06:51:11;120.40;;;41.30;;
39888;SDS011;25563;50.844;4.308;2022-11-20T06:53:38;121.65;;;42.65;;
39888;SDS011;25563;50.844;4.308;2022-11-20T06:56:04;130.27;;;45.45;;
39888;SDS011;25563;50.844;4.308;2022-11-20T06:58:31;119.90;;;42.92;;
39888;SDS011;25563;50.844;4.308;2022-11-20T07:00:58;122.07;;;42.63;;
39888;SDS011;25563;50.844;4.308;2022-11-20T07:03:25;108.95;;;42.00;;
39888;SDS011;25563;50.844;4.308;2022-11-20T07:05:53;111.22;;;40.42;;
39888;SDS011;25563;50.844;4.308;2022-11-20T07:08:20;104.65;;;41.13;;
39888;SDS011;25563;50.844;4.308;2022-11-20T07:10:45;111.03;;;41.33;;
39888;SDS011;25563;50.844;4.308;2022-11-20T07:13:11;108.70;;;42.13;;
39888;SDS011;25563;50.844;4.308;2022-11-20T07:15:37;109.32;;;41.65;;
39888;SDS011;25563;50.844;4.308;2022-11-20T07:18:02;110.15;;;41.13;;
39888;SDS011;25563;50.844;4.308;2022-11-20T07:20:28;105.03;;;40.42;;
39888;SDS011;25563;50.844;4.308;2022-11-20T07:22:54;99.22;;;39.28;;
39888;SDS011;25563;50.844;4.308;2022-11-20T07:25:21;97.72;;;40.15;;
39888;SDS011;25563;50.844;4.308;2022-11-20T07:27:47;100.47;;;39.30;;
39888;SDS011;25563;50.844;4.308;2022-11-20T07:30:13;94.82;;;38.00;;
39888;SDS011;25563;50.844;4.308;2022-11-20T07:32:40;103.57;;;39.83;;
39888;SDS011;25563;50.844;4.308;2022-11-20T07:35:05;97.10;;;38.08;;
39888;SDS011;25563;50.844;4.308;2022-11-20T07:37:33;96.30;;;38.00;;
39888;SDS011;25563;50.844;4.308;2022-11-20T07:40:00;94.43;;;37.88;;
39888;SDS011;25563;50.844;4.308;2022-11-20T07:42:26;94.55;;;36.70;;
39888;SDS011;25563;50.844;4.308;2022-11-20T07:44:52;94.18;;;37.03;;
39888;SDS011;25563;50.844;4.308;2022-11-20T07:47:18;95.20;;;35.88;;
39888;SDS011;25563;50.844;4.308;2022-11-20T07:49:43;105.05;;;38.63;;
39888;SDS011;25563;50.844;4.308;2022-11-20T07:52:09;104.18;;;36.75;;
39888;SDS011;25563;50.844;4.308;2022-11-20T07:54:34;107.97;;;37.08;;
39888;SDS011;25563;50.844;4.308;2022-11-20T07:57:00;108.80;;;39.08;;
39888;SDS011;25563;50.844;4.308;2022-11-20T07:59:26;103.82;;;37.50;;
39888;SDS011;25563;50.844;4.308;2022-11-20T08:01:51;121.28;;;39.40;;
39888;SDS011;25563;50.844;4.308;2022-11-20T08:04:17;116.95;;;40.22;;
39888;SDS011;25563;50.844;4.308;2022-11-20T08:06:43;116.30;;;37.53;;
39888;SDS011;25563;50.844;4.308;2022-11-20T08:09:08;127.78;;;40.40;;
39888;SDS011;25563;50.844;4.308;2022-11-20T08:11:34;119.72;;;39.92;;
39888;SDS011;25563;50.844;4.308;2022-11-20T08:14:18;120.30;;;39.28;;
39888;SDS011;25563;50.844;4.308;2022-11-20T08:16:45;107.15;;;38.35;;
39888;SDS011;25563;50.844;4.308;2022-11-20T08:19:13;103.85;;;36.53;;
39888;SDS011;25563;50.844;4.308;2022-11-20T08:21:40;98.35;;;35.15;;
39888;SDS011;25563;50.844;4.308;2022-11-20T08:24:06;107.05;;;36.13;;
39888;SDS011;25563;50.844;4.308;2022-11-20T08:26:35;113.05;;;37.63;;
39888;SDS011;25563;50.844;4.308;2022-11-20T08:29:02;102.60;;;39.40;;
39888;SDS011;25563;50.844;4.308;2022-11-20T08:31:28;102.72;;;36.47;;
39888;SDS011;25563;50.844;4.308;2022-11-20T08:33:55;96.93;;;34.55;;
39888;SDS011;25563;50.844;4.308;2022-11-20T08:36:21;108.45;;;36.95;;
39888;SDS011;25563;50.844;4.308;2022-11-20T08:38:48;110.63;;;36.50;;
39888;SDS011;25563;50.844;4.308;2022-11-20T08:41:16;101.20;;;36.13;;
39888;SDS011;25563;50.844;4.308;2022-11-20T08:43:49;102.07;;;36.40;;
39888;SDS011;25563;50.844;4.308;2022-11-20T08:46:15;108.30;;;35.60;;
39888;SDS011;25563;50.844;4.308;2022-11-20T08:48:41;103.25;;;35.88;;
39888;SDS011;25563;50.844;4.308;2022-11-20T08:51:07;100.15;;;37.35;;
39888;SDS011;25563;50.844;4.308;2022-11-20T08:53:33;106.03;;;36.42;;
39888;SDS011;25563;50.844;4.308;2022-11-20T08:55:59;91.40;;;34.97;;
39888;SDS011;25563;50.844;4.308;2022-11-20T08:58:25;99.65;;;36.90;;
39888;SDS011;25563;50.844;4.308;2022-11-20T09:00:51;100.75;;;35.00;;
39888;SDS011;25563;50.844;4.308;2022-11-20T09:03:18;104.65;;;36.35;;
39888;SDS011;25563;50.844;4.308;2022-11-20T09:05:44;103.07;;;36.75;;
39888;SDS011;25563;50.844;4.308;2022-11-20T09:08:10;93.03;;;35.28;;
39888;SDS011;25563;50.844;4.308;2022-11-20T09:10:35;88.07;;;34.28;;
39888;SDS011;25563;50.844;4.308;2022-11-20T09:13:04;97.60;;;34.63;;
39888;SDS011;25563;50.844;4.308;2022-11-20T09:15:31;87.18;;;34.25;;
39888;SDS011;25563;50.844;4.308;2022-11-20T09:17:58;88.82;;;34.50;;
39888;SDS011;25563;50.844;4.308;2022-11-20T09:20:29;90.70;;;33.85;;
39888;SDS011;25563;50.844;4.308;2022-11-20T09:22:57;89.63;;;35.33;;
39888;SDS011;25563;50.844;4.308;2022-11-20T09:25:24;90.47;;;32.60;;
39888;SDS011;25563;50.844;4.308;2022-11-20T09:27:56;82.47;;;32.22;;
39888;SDS011;25563;50.844;4.308;2022-11-20T09:30:22;70.20;;;31.33;;
39888;SDS011;25563;50.844;4.308;2022-11-20T09:32:49;78.18;;;31.00;;
39888;SDS011;25563;50.844;4.308;2022-11-20T09:35:14;74.78;;;31.23;;
39888;SDS011;25563;50.844;4.308;2022-11-20T09:37:40;72.18;;;30.27;;
39888;SDS011;25563;50.844;4.308;2022-11-20T09:40:06;78.65;;;31.65;;
39888;SDS011;25563;50.844;4.308;2022-11-20T09:42:56;66.10;;;30.25;;
39888;SDS011;25563;50.844;4.308;2022-11-20T09:57:13;57.30;;;26.15;;
39888;SDS011;25563;50.844;4.308;2022-11-20T09:59:42;53.83;;;26.23;;
39888;SDS011;25563;50.844;4.308;2022-11-20T10:10:29;37.40;;;20.88;;
39888;SDS011;25563;50.844;4.308;2022-11-20T10:16:22;40.75;;;21.55;;
39888;SDS011;25563;50.844;4.308;2022-11-20T10:27:38;24.45;;;14.45;;
39888;SDS011;25563;50.844;4.308;2022-11-20T10:30:14;26.85;;;14.07;;
39888;SDS011;25563;50.844;4.308;2022-11-20T10:32:43;25.97;;;13.33;;
39888;SDS011;25563;50.844;4.308;2022-11-20T10:37:48;14.60;;;10.45;;
39888;SDS011;25563;50.844;4.308;2022-11-20T10:43:02;12.98;;;9.45;;
39888;SDS011;25563;50.844;4.308;2022-11-20T10:45:57;9.15;;;7.72;;
39888;SDS011;25563;50.844;4.308;2022-11-20T10:48:28;22.38;;;7.80;;
39888;SDS011;25563;50.844;4.308;2022-11-20T10:51:02;8.55;;;7.53;;
39888;SDS011;25563;50.844;4.308;2022-11-20T10:53:56;14.65;;;7.40;;
39888;SDS011;25563;50.844;4.308;2022-11-20T11:01:51;8.20;;;6.50;;
39888;SDS011;25563;50.844;4.308;2022-11-20T11:04:28;10.00;;;5.97;;
39888;SDS011;25563;50.844;4.308;2022-11-20T11:09:43;9.85;;;6.88;;
39888;SDS011;25563;50.844;4.308;2022-11-20T11:12:14;13.90;;;6.97;;
39888;SDS011;25563;50.844;4.308;2022-11-20T11:14:58;14.68;;;6.63;;
39888;SDS011;25563;50.844;4.308;2022-11-20T11:17:25;8.90;;;6.15;;
39888;SDS011;25563;50.844;4.308;2022-11-20T11:20:15;11.93;;;5.32;;
39888;SDS011;25563;50.844;4.308;2022-11-20T11:22:48;14.10;;;5.32;;
39888;SDS011;25563;50.844;4.308;2022-11-20T11:25:21;8.70;;;5.25;;
39888;SDS011;25563;50.844;4.308;2022-11-20T11:27:48;11.45;;;6.15;;
39888;SDS011;25563;50.844;4.308;2022-11-20T11:30:16;19.33;;;8.68;;
39888;SDS011;25563;50.844;4.308;2022-11-20T11:32:43;7.43;;;4.88;;
39888;SDS011;25563;50.844;4.308;2022-11-20T11:37:53;6.82;;;4.47;;
39888;SDS011;25563;50.844;4.308;2022-11-20T11:40:26;9.25;;;4.82;;
39888;SDS011;25563;50.844;4.308;2022-11-20T11:42:57;8.55;;;4.95;;
39888;SDS011;25563;50.844;4.308;2022-11-20T11:45:25;11.30;;;5.18;;
39888;SDS011;25563;50.844;4.308;2022-11-20T11:47:53;7.18;;;4.53;;
39888;SDS011;25563;50.844;4.308;2022-11-20T11:50:22;7.90;;;4.72;;
39888;SDS011;25563;50.844;4.308;2022-11-20T11:53:09;6.55;;;4.75;;
39888;SDS011;25563;50.844;4.308;2022-11-20T12:09:57;6.07;;;4.35;;
39888;SDS011;25563;50.844;4.308;2022-11-20T12:12:30;5.75;;;4.45;;
39888;SDS011;25563;50.844;4.308;2022-11-20T12:15:09;8.05;;;4.60;;
39888;SDS011;25563;50.844;4.308;2022-11-20T12:17:38;12.98;;;4.03;;
39888;SDS011;25563;50.844;4.308;2022-11-20T12:20:05;16.20;;;5.13;;
39888;SDS011;25563;50.844;4.308;2022-11-20T12:23:02;9.45;;;4.20;;
39888;SDS011;25563;50.844;4.308;2022-11-20T12:25:51;7.93;;;5.05;;
39888;SDS011;25563;50.844;4.308;2022-11-20T12:28:30;11.05;;;6.05;;
39888;SDS011;25563;50.844;4.308;2022-11-20T12:34:24;8.27;;;4.43;;
39888;SDS011;25563;50.844;4.308;2022-11-20T12:37:05;4.38;;;3.47;;
39888;SDS011;25563;50.844;4.308;2022-11-20T12:39:48;5.13;;;3.55;;
39888;SDS011;25563;50.844;4.308;2022-11-20T12:42:42;11.73;;;3.72;;
39888;SDS011;25563;50.844;4.308;2022-11-20T12:48:16;14.45;;;4.82;;
39888;SDS011;25563;50.844;4.308;2022-11-20T13:06:48;7.22;;;5.03;;
39888;SDS011;25563;50.844;4.308;2022-11-20T13:09:15;4.28;;;3.38;;
39888;SDS011;25563;50.844;4.308;2022-11-20T13:11:49;11.60;;;4.00;;
39888;SDS011;25563;50.844;4.308;2022-11-20T13:14:34;8.13;;;4.00;;
39888;SDS011;25563;50.844;4.308;2022-11-20T13:20:01;9.27;;;5.88;;
39888;SDS011;25563;50.844;4.308;2022-11-20T13:22:51;7.82;;;4.65;;
39888;SDS011;25563;50.844;4.308;2022-11-20T13:25:24;6.97;;;4.80;;
39888;SDS011;25563;50.844;4.308;2022-11-20T13:27:51;11.82;;;4.85;;
39888;SDS011;25563;50.844;4.308;2022-11-20T13:30:21;9.30;;;4.50;;
39888;SDS011;25563;50.844;4.308;2022-11-20T13:32:49;8.93;;;4.80;;
39888;SDS011;25563;50.844;4.308;2022-11-20T13:38:27;5.32;;;3.90;;
39888;SDS011;25563;50.844;4.308;2022-11-20T13:40:54;7.35;;;4.95;;
39888;SDS011;25563;50.844;4.308;2022-11-20T13:46:02;9.40;;;4.35;;
39888;SDS011;25563;50.844;4.308;2022-11-20T13:48:33;7.40;;;4.05;;
39888;SDS011;25563;50.844;4.308;2022-11-20T14:01:49;4.38;;;3.30;;
39888;SDS011;25563;50.844;4.308;2022-11-20T14:04:19;4.03;;;3.28;;
39888;SDS011;25563;50.844;4.308;2022-11-20T14:06:52;4.50;;;3.00;;
39888;SDS011;25563;50.844;4.308;2022-11-20T14:09:28;7.40;;;3.55;;
39888;SDS011;25563;50.844;4.308;2022-11-20T14:11:56;5.63;;;3.17;;
39888;SDS011;25563;50.844;4.308;2022-11-20T14:14:23;7.70;;;3.80;;
39888;SDS011;25563;50.844;4.308;2022-11-20T14:16:51;4.00;;;3.35;;
39888;SDS011;25563;50.844;4.308;2022-11-20T14:21:52;3.78;;;3.20;;
39888;SDS011;25563;50.844;4.308;2022-11-20T14:24:25;4.50;;;2.90;;
39888;SDS011;25563;50.844;4.308;2022-11-20T14:26:52;6.20;;;3.58;;
39888;SDS011;25563;50.844;4.308;2022-11-20T14:29:18;5.25;;;3.70;;
39888;SDS011;25563;50.844;4.308;2022-11-20T14:31:54;4.90;;;3.55;;
39888;SDS011;25563;50.844;4.308;2022-11-20T14:34:23;5.60;;;4.47;;
39888;SDS011;25563;50.844;4.308;2022-11-20T14:37:01;4.97;;;3.58;;
39888;SDS011;25563;50.844;4.308;2022-11-20T14:39:34;6.05;;;3.65;;
39888;SDS011;25563;50.844;4.308;2022-11-20T14:42:01;3.20;;;2.78;;
39888;SDS011;25563;50.844;4.308;2022-11-20T14:44:38;4.50;;;4.05;;
39888;SDS011;25563;50.844;4.308;2022-11-20T14:47:04;4.07;;;3.30;;
39888;SDS011;25563;50.844;4.308;2022-11-20T14:49:31;3.88;;;3.47;;
39888;SDS011;25563;50.844;4.308;2022-11-20T14:52:01;6.47;;;3.80;;
39888;SDS011;25563;50.844;4.308;2022-11-20T14:54:46;4.88;;;2.70;;
39888;SDS011;25563;50.844;4.308;2022-11-20T15:02:45;2.03;;;1.83;;
39888;SDS011;25563;50.844;4.308;2022-11-20T15:05:13;2.55;;;1.90;;
39888;SDS011;25563;50.844;4.308;2022-11-20T15:07:40;2.58;;;2.22;;
39888;SDS011;25563;50.844;4.308;2022-11-20T15:12:48;3.47;;;2.28;;
39888;SDS011;25563;50.844;4.308;2022-11-20T15:15:21;7.57;;;2.17;;
39888;SDS011;25563;50.844;4.308;2022-11-20T15:17:54;2.88;;;2.60;;
39888;SDS011;25563;50.844;4.308;2022-11-20T15:20:20;8.15;;;3.88;;
39888;SDS011;25563;50.844;4.308;2022-11-20T15:22:50;6.05;;;3.53;;
39888;SDS011;25563;50.844;4.308;2022-11-20T15:25:17;7.85;;;3.70;;
39888;SDS011;25563;50.844;4.308;2022-11-20T15:27:43;5.65;;;5.07;;
39888;SDS011;25563;50.844;4.308;2022-11-20T15:30:17;4.85;;;4.03;;
39888;SDS011;25563;50.844;4.308;2022-11-20T15:32:44;9.18;;;8.15;;
39888;SDS011;25563;50.844;4.308;2022-11-20T15:35:13;9.48;;;7.03;;
39888;SDS011;25563;50.844;4.308;2022-11-20T15:37:40;9.77;;;4.45;;
39888;SDS011;25563;50.844;4.308;2022-11-20T15:40:07;21.27;;;11.13;;
39888;SDS011;25563;50.844;4.308;2022-11-20T15:42:33;15.80;;;9.45;;
39888;SDS011;25563;50.844;4.308;2022-11-20T15:45:03;23.40;;;13.13;;
39888;SDS011;25563;50.844;4.308;2022-11-20T15:47:32;20.88;;;12.13;;
39888;SDS011;25563;50.844;4.308;2022-11-20T15:50:00;17.58;;;11.00;;
39888;SDS011;25563;50.844;4.308;2022-11-20T15:52:26;19.55;;;10.07;;
39888;SDS011;25563;50.844;4.308;2022-11-20T15:54:53;17.75;;;10.90;;
39888;SDS011;25563;50.844;4.308;2022-11-20T15:57:19;22.17;;;10.70;;
39888;SDS011;25563;50.844;4.308;2022-11-20T15:59:46;24.95;;;11.35;;
39888;SDS011;25563;50.844;4.308;2022-11-20T16:02:12;16.92;;;8.07;;
39888;SDS011;25563;50.844;4.308;2022-11-20T16:04:39;10.73;;;6.40;;
39888;SDS011;25563;50.844;4.308;2022-11-20T16:07:04;20.95;;;9.77;;
39888;SDS011;25563;50.844;4.308;2022-11-20T16:09:30;19.02;;;5.10;;
39888;SDS011;25563;50.844;4.308;2022-11-20T16:11:56;18.35;;;5.88;;
39888;SDS011;25563;50.844;4.308;2022-11-20T16:14:28;11.65;;;5.50;;
39888;SDS011;25563;50.844;4.308;2022-11-20T16:17:12;14.63;;;4.82;;
39888;SDS011;25563;50.844;4.308;2022-11-20T16:19:39;14.02;;;4.57;;
39888;SDS011;25563;50.844;4.308;2022-11-20T16:22:05;17.13;;;5.30;;
39888;SDS011;25563;50.844;4.308;2022-11-20T16:24:33;20.98;;;7.93;;
39888;SDS011;25563;50.844;4.308;2022-11-20T16:26:59;21.88;;;7.60;;
39888;SDS011;25563;50.844;4.308;2022-11-20T16:29:24;25.55;;;7.47;;
39888;SDS011;25563;50.844;4.308;2022-11-20T16:31:50;20.73;;;7.03;;
39888;SDS011;25563;50.844;4.308;2022-11-20T16:34:16;23.83;;;6.10;;
39888;SDS011;25563;50.844;4.308;2022-11-20T16:36:43;23.13;;;5.63;;
39888;SDS011;25563;50.844;4.308;2022-11-20T16:39:10;23.05;;;6.45;;